sensor_id;sensor_type;location;lat;lon;timestamp;temperature;humidity
23160;DHT22;11748;50.844;4.396;2023-05-01T00:00:41;16.40;99.90
23160;DHT22;11748;50.844;4.396;2023-05-01T00:03:06;16.30;99.90
23160;DHT22;11748;50.844;4.396;2023-05-01T00:05:32;16.30;99.90
23160;DHT22;11748;50.844;4.396;2023-05-01T00:07:58;16.30;99.90
23160;DHT22;11748;50.844;4.396;2023-05-01T00:10:23;16.40;99.90
23160;DHT22;11748;50.844;4.396;2023-05-01T00:12:49;16.30;99.90
23160;DHT22;11748;50.844;4.396;2023-05-01T00:15:15;16.30;99.90
23160;DHT22;11748;50.844;4.396;2023-05-01T00:17:41;16.30;99.90
23160;DHT22;11748;50.844;4.396;2023-05-01T00:20:07;16.40;99.90
23160;DHT22;11748;50.844;4.396;2023-05-01T00:22:34;16.30;99.90
23160;DHT22;11748;50.844;4.396;2023-05-01T00:24:59;16.30;99.90
23160;DHT22;11748;50.844;4.396;2023-05-01T00:27:25;16.30;99.90
23160;DHT22;11748;50.844;4.396;2023-05-01T00:29:51;16.20;99.90
23160;DHT22;11748;50.844;4.396;2023-05-01T00:32:17;16.20;99.90
23160;DHT22;11748;50.844;4.396;2023-05-01T00:34:43;16.30;99.90
23160;DHT22;11748;50.844;4.396;2023-05-01T00:37:10;16.30;99.90
23160;DHT22;11748;50.844;4.396;2023-05-01T00:39:36;16.30;99.90
23160;DHT22;11748;50.844;4.396;2023-05-01T00:42:02;16.20;99.90
23160;DHT22;11748;50.844;4.396;2023-05-01T00:44:28;16.20;99.90
23160;DHT22;11748;50.844;4.396;2023-05-01T00:46:54;16.30;99.90
23160;DHT22;11748;50.844;4.396;2023-05-01T00:49:20;16.30;99.90
23160;DHT22;11748;50.844;4.396;2023-05-01T00:51:48;16.10;99.90
23160;DHT22;11748;50.844;4.396;2023-05-01T00:54:17;16.20;99.90
23160;DHT22;11748;50.844;4.396;2023-05-01T00:56:47;16.20;99.90
23160;DHT22;11748;50.844;4.396;2023-05-01T00:59:14;16.30;99.90
23160;DHT22;11748;50.844;4.396;2023-05-01T01:01:42;16.30;99.90
23160;DHT22;11748;50.844;4.396;2023-05-01T01:04:08;16.30;99.90
23160;DHT22;11748;50.844;4.396;2023-05-01T01:09:26;16.00;99.90
23160;DHT22;11748;50.844;4.396;2023-05-01T01:14:38;15.90;99.90
23160;DHT22;11748;50.844;4.396;2023-05-01T01:17:26;16.00;99.90
23160;DHT22;11748;50.844;4.396;2023-05-01T01:29:02;16.30;99.90
23160;DHT22;11748;50.844;4.396;2023-05-01T01:36:48;16.30;99.90
23160;DHT22;11748;50.844;4.396;2023-05-01T01:39:30;16.30;99.90
23160;DHT22;11748;50.844;4.396;2023-05-01T01:41:58;16.30;99.90
23160;DHT22;11748;50.844;4.396;2023-05-01T01:44:36;16.30;99.90
23160;DHT22;11748;50.844;4.396;2023-05-01T01:47:05;16.30;99.90
23160;DHT22;11748;50.844;4.396;2023-05-01T01:49:34;16.20;99.90
23160;DHT22;11748;50.844;4.396;2023-05-01T01:52:02;16.20;99.90
23160;DHT22;11748;50.844;4.396;2023-05-01T01:54:36;16.30;99.90
23160;DHT22;11748;50.844;4.396;2023-05-01T01:57:04;16.30;99.90
23160;DHT22;11748;50.844;4.396;2023-05-01T01:59:33;16.30;99.90
23160;DHT22;11748;50.844;4.396;2023-05-01T02:02:01;16.30;99.90
23160;DHT22;11748;50.844;4.396;2023-05-01T02:04:28;16.30;99.90
23160;DHT22;11748;50.844;4.396;2023-05-01T02:06:58;16.40;99.90
23160;DHT22;11748;50.844;4.396;2023-05-01T02:09:27;16.30;99.90
23160;DHT22;11748;50.844;4.396;2023-05-01T02:11:53;16.30;99.90
23160;DHT22;11748;50.844;4.396;2023-05-01T02:14:25;16.30;99.90
23160;DHT22;11748;50.844;4.396;2023-05-01T02:16:51;16.30;99.90
23160;DHT22;11748;50.844;4.396;2023-05-01T02:19:18;16.30;99.90
23160;DHT22;11748;50.844;4.396;2023-05-01T02:21:44;16.20;99.90
23160;DHT22;11748;50.844;4.396;2023-05-01T02:24:11;16.20;99.90
23160;DHT22;11748;50.844;4.396;2023-05-01T02:26:41;16.00;99.90
23160;DHT22;11748;50.844;4.396;2023-05-01T02:29:08;15.90;99.90
23160;DHT22;11748;50.844;4.396;2023-05-01T02:31:34;15.90;99.90
23160;DHT22;11748;50.844;4.396;2023-05-01T02:34:00;16.10;99.90
23160;DHT22;11748;50.844;4.396;2023-05-01T02:36:26;16.20;99.90
23160;DHT22;11748;50.844;4.396;2023-05-01T02:38:53;16.20;99.90
23160;DHT22;11748;50.844;4.396;2023-05-01T02:41:21;16.10;99.90
23160;DHT22;11748;50.844;4.396;2023-05-01T02:43:51;15.80;99.90
23160;DHT22;11748;50.844;4.396;2023-05-01T02:46:18;15.70;99.90
23160;DHT22;11748;50.844;4.396;2023-05-01T02:48:45;15.60;99.90
23160;DHT22;11748;50.844;4.396;2023-05-01T02:51:12;15.70;99.90
23160;DHT22;11748;50.844;4.396;2023-05-01T02:53:38;15.70;99.90
23160;DHT22;11748;50.844;4.396;2023-05-01T02:56:05;15.90;99.90
23160;DHT22;11748;50.844;4.396;2023-05-01T02:58:33;16.00;99.90
23160;DHT22;11748;50.844;4.396;2023-05-01T03:00:59;16.00;99.90
23160;DHT22;11748;50.844;4.396;2023-05-01T03:03:25;16.10;99.90
23160;DHT22;11748;50.844;4.396;2023-05-01T03:05:52;16.10;99.90
23160;DHT22;11748;50.844;4.396;2023-05-01T03:08:18;16.10;99.90
23160;DHT22;11748;50.844;4.396;2023-05-01T03:10:44;16.10;99.90
23160;DHT22;11748;50.844;4.396;2023-05-01T03:13:10;16.10;99.90
23160;DHT22;11748;50.844;4.396;2023-05-01T03:15:36;16.10;99.90
23160;DHT22;11748;50.844;4.396;2023-05-01T03:18:03;16.10;99.90
23160;DHT22;11748;50.844;4.396;2023-05-01T03:20:28;15.90;99.90
23160;DHT22;11748;50.844;4.396;2023-05-01T03:22:55;15.80;99.90
23160;DHT22;11748;50.844;4.396;2023-05-01T03:25:21;15.70;99.90
23160;DHT22;11748;50.844;4.396;2023-05-01T03:27:47;15.60;99.90
23160;DHT22;11748;50.844;4.396;2023-05-01T03:30:14;15.60;99.90
23160;DHT22;11748;50.844;4.396;2023-05-01T03:32:40;15.50;99.90
23160;DHT22;11748;50.844;4.396;2023-05-01T03:35:06;15.50;99.90
23160;DHT22;11748;50.844;4.396;2023-05-01T03:37:32;15.50;99.90
23160;DHT22;11748;50.844;4.396;2023-05-01T03:39:58;15.40;99.90
23160;DHT22;11748;50.844;4.396;2023-05-01T03:42:25;15.40;99.90
23160;DHT22;11748;50.844;4.396;2023-05-01T03:44:50;15.50;99.90
23160;DHT22;11748;50.844;4.396;2023-05-01T03:47:17;15.50;99.90
23160;DHT22;11748;50.844;4.396;2023-05-01T03:49:43;15.70;99.90
23160;DHT22;11748;50.844;4.396;2023-05-01T03:52:10;15.60;99.90
23160;DHT22;11748;50.844;4.396;2023-05-01T03:54:37;15.70;99.90
23160;DHT22;11748;50.844;4.396;2023-05-01T03:57:03;15.60;99.90
23160;DHT22;11748;50.844;4.396;2023-05-01T03:59:29;15.60;99.90
23160;DHT22;11748;50.844;4.396;2023-05-01T04:01:55;15.50;99.90
23160;DHT22;11748;50.844;4.396;2023-05-01T04:04:20;15.60;99.90
23160;DHT22;11748;50.844;4.396;2023-05-01T04:06:46;15.60;99.90
23160;DHT22;11748;50.844;4.396;2023-05-01T04:09:14;15.60;99.90
23160;DHT22;11748;50.844;4.396;2023-05-01T04:11:40;15.60;99.90
23160;DHT22;11748;50.844;4.396;2023-05-01T04:14:06;15.60;99.90
23160;DHT22;11748;50.844;4.396;2023-05-01T04:16:32;15.60;99.90
23160;DHT22;11748;50.844;4.396;2023-05-01T04:18:57;15.60;99.90
23160;DHT22;11748;50.844;4.396;2023-05-01T04:21:23;15.50;99.90
23160;DHT22;11748;50.844;4.396;2023-05-01T04:23:49;15.50;99.90
23160;DHT22;11748;50.844;4.396;2023-05-01T04:26:15;15.50;99.90
23160;DHT22;11748;50.844;4.396;2023-05-01T04:28:41;15.50;99.90
23160;DHT22;11748;50.844;4.396;2023-05-01T04:31:07;15.50;99.90
23160;DHT22;11748;50.844;4.396;2023-05-01T04:33:32;15.60;99.90
23160;DHT22;11748;50.844;4.396;2023-05-01T04:35:58;15.60;99.90
23160;DHT22;11748;50.844;4.396;2023-05-01T04:38:24;15.50;99.90
23160;DHT22;11748;50.844;4.396;2023-05-01T04:40:49;15.60;99.90
23160;DHT22;11748;50.844;4.396;2023-05-01T04:43:16;15.50;99.90
23160;DHT22;11748;50.844;4.396;2023-05-01T04:45:42;15.60;99.90
23160;DHT22;11748;50.844;4.396;2023-05-01T04:48:08;15.60;99.90
23160;DHT22;11748;50.844;4.396;2023-05-01T04:50:33;15.60;99.90
23160;DHT22;11748;50.844;4.396;2023-05-01T04:52:59;15.70;99.90
23160;DHT22;11748;50.844;4.396;2023-05-01T04:55:25;15.80;99.90
23160;DHT22;11748;50.844;4.396;2023-05-01T04:57:50;15.70;99.90
23160;DHT22;11748;50.844;4.396;2023-05-01T05:00:16;15.80;99.90
23160;DHT22;11748;50.844;4.396;2023-05-01T05:02:44;15.80;99.90
23160;DHT22;11748;50.844;4.396;2023-05-01T05:05:10;15.80;99.90
23160;DHT22;11748;50.844;4.396;2023-05-01T05:07:36;16.00;99.90
23160;DHT22;11748;50.844;4.396;2023-05-01T05:10:02;16.10;99.90
23160;DHT22;11748;50.844;4.396;2023-05-01T05:12:28;16.10;99.90
23160;DHT22;11748;50.844;4.396;2023-05-01T05:14:53;15.90;99.90
23160;DHT22;11748;50.844;4.396;2023-05-01T05:17:19;15.70;99.90
23160;DHT22;11748;50.844;4.396;2023-05-01T05:19:45;15.50;99.90
23160;DHT22;11748;50.844;4.396;2023-05-01T05:22:11;15.40;99.90
23160;DHT22;11748;50.844;4.396;2023-05-01T05:24:37;15.20;99.90
23160;DHT22;11748;50.844;4.396;2023-05-01T05:27:03;15.30;99.90
23160;DHT22;11748;50.844;4.396;2023-05-01T05:29:30;15.40;99.90
23160;DHT22;11748;50.844;4.396;2023-05-01T05:31:57;15.60;99.90
23160;DHT22;11748;50.844;4.396;2023-05-01T05:34:24;15.80;99.90
23160;DHT22;11748;50.844;4.396;2023-05-01T05:36:50;15.70;99.90
23160;DHT22;11748;50.844;4.396;2023-05-01T05:39:15;15.60;99.90
23160;DHT22;11748;50.844;4.396;2023-05-01T05:41:42;15.60;99.90
23160;DHT22;11748;50.844;4.396;2023-05-01T05:44:07;15.70;99.90
23160;DHT22;11748;50.844;4.396;2023-05-01T05:46:33;15.80;99.90
23160;DHT22;11748;50.844;4.396;2023-05-01T05:48:59;15.70;99.90
23160;DHT22;11748;50.844;4.396;2023-05-01T05:51:24;15.70;99.90
23160;DHT22;11748;50.844;4.396;2023-05-01T05:53:51;15.60;99.90
23160;DHT22;11748;50.844;4.396;2023-05-01T05:56:16;15.60;99.90
23160;DHT22;11748;50.844;4.396;2023-05-01T05:58:42;15.70;99.90
23160;DHT22;11748;50.844;4.396;2023-05-01T06:01:08;15.80;99.90
23160;DHT22;11748;50.844;4.396;2023-05-01T06:03:34;15.90;99.90
23160;DHT22;11748;50.844;4.396;2023-05-01T06:06:00;15.80;99.90
23160;DHT22;11748;50.844;4.396;2023-05-01T06:08:26;15.70;99.90
23160;DHT22;11748;50.844;4.396;2023-05-01T06:10:52;15.70;99.90
23160;DHT22;11748;50.844;4.396;2023-05-01T06:13:18;15.50;99.90
23160;DHT22;11748;50.844;4.396;2023-05-01T06:15:44;15.70;99.90
23160;DHT22;11748;50.844;4.396;2023-05-01T06:18:10;15.90;99.90
23160;DHT22;11748;50.844;4.396;2023-05-01T06:20:36;15.90;99.90
23160;DHT22;11748;50.844;4.396;2023-05-01T06:23:03;15.80;99.90
23160;DHT22;11748;50.844;4.396;2023-05-01T06:25:28;16.00;99.90
23160;DHT22;11748;50.844;4.396;2023-05-01T06:27:55;16.00;99.90
23160;DHT22;11748;50.844;4.396;2023-05-01T06:30:21;16.00;99.90
23160;DHT22;11748;50.844;4.396;2023-05-01T06:32:47;16.00;99.90
23160;DHT22;11748;50.844;4.396;2023-05-01T06:35:14;16.00;99.90
23160;DHT22;11748;50.844;4.396;2023-05-01T06:37:40;16.00;99.90
23160;DHT22;11748;50.844;4.396;2023-05-01T06:40:09;16.00;99.90
23160;DHT22;11748;50.844;4.396;2023-05-01T06:42:38;16.10;99.90
23160;DHT22;11748;50.844;4.396;2023-05-01T06:45:06;16.20;99.90
23160;DHT22;11748;50.844;4.396;2023-05-01T06:47:32;16.40;99.90
23160;DHT22;11748;50.844;4.396;2023-05-01T06:49:58;16.40;99.90
23160;DHT22;11748;50.844;4.396;2023-05-01T06:52:24;16.20;99.90
23160;DHT22;11748;50.844;4.396;2023-05-01T06:54:50;16.20;99.90
23160;DHT22;11748;50.844;4.396;2023-05-01T06:57:15;16.30;99.90
23160;DHT22;11748;50.844;4.396;2023-05-01T06:59:41;16.30;99.90
23160;DHT22;11748;50.844;4.396;2023-05-01T07:02:07;16.20;99.90
23160;DHT22;11748;50.844;4.396;2023-05-01T07:04:32;16.30;99.90
23160;DHT22;11748;50.844;4.396;2023-05-01T07:06:58;16.20;99.90
23160;DHT22;11748;50.844;4.396;2023-05-01T07:09:25;16.10;99.90
23160;DHT22;11748;50.844;4.396;2023-05-01T07:11:51;16.10;99.90
23160;DHT22;11748;50.844;4.396;2023-05-01T07:14:16;16.20;99.90
23160;DHT22;11748;50.844;4.396;2023-05-01T07:16:42;16.10;99.90
23160;DHT22;11748;50.844;4.396;2023-05-01T07:19:08;16.00;99.90
23160;DHT22;11748;50.844;4.396;2023-05-01T07:21:34;15.80;99.90
23160;DHT22;11748;50.844;4.396;2023-05-01T07:23:59;15.80;99.90
23160;DHT22;11748;50.844;4.396;2023-05-01T07:26:26;15.90;99.90
23160;DHT22;11748;50.844;4.396;2023-05-01T07:28:52;16.00;99.90
23160;DHT22;11748;50.844;4.396;2023-05-01T07:31:17;16.20;99.90
23160;DHT22;11748;50.844;4.396;2023-05-01T07:33:43;16.30;99.90
23160;DHT22;11748;50.844;4.396;2023-05-01T07:36:09;16.40;99.90
23160;DHT22;11748;50.844;4.396;2023-05-01T07:38:35;16.50;99.90
23160;DHT22;11748;50.844;4.396;2023-05-01T07:41:01;16.60;99.90
23160;DHT22;11748;50.844;4.396;2023-05-01T07:43:27;16.40;99.90
23160;DHT22;11748;50.844;4.396;2023-05-01T07:46:02;16.40;99.90
23160;DHT22;11748;50.844;4.396;2023-05-01T07:48:27;16.50;99.90
23160;DHT22;11748;50.844;4.396;2023-05-01T07:50:54;16.40;99.90
23160;DHT22;11748;50.844;4.396;2023-05-01T07:53:20;16.40;99.90
23160;DHT22;11748;50.844;4.396;2023-05-01T07:55:48;16.40;99.90
23160;DHT22;11748;50.844;4.396;2023-05-01T07:58:14;16.50;99.90
23160;DHT22;11748;50.844;4.396;2023-05-01T08:00:41;16.70;99.90
23160;DHT22;11748;50.844;4.396;2023-05-01T08:03:09;16.60;99.90
23160;DHT22;11748;50.844;4.396;2023-05-01T08:05:35;16.60;99.90
23160;DHT22;11748;50.844;4.396;2023-05-01T08:08:03;16.50;99.90
23160;DHT22;11748;50.844;4.396;2023-05-01T08:10:30;16.60;99.90
23160;DHT22;11748;50.844;4.396;2023-05-01T08:12:56;16.90;99.90
23160;DHT22;11748;50.844;4.396;2023-05-01T08:15:22;17.00;99.90
23160;DHT22;11748;50.844;4.396;2023-05-01T08:17:48;17.00;99.90
23160;DHT22;11748;50.844;4.396;2023-05-01T08:20:15;16.90;99.90
23160;DHT22;11748;50.844;4.396;2023-05-01T08:22:41;17.00;99.90
23160;DHT22;11748;50.844;4.396;2023-05-01T08:25:07;17.20;99.90
23160;DHT22;11748;50.844;4.396;2023-05-01T08:27:33;17.40;99.90
23160;DHT22;11748;50.844;4.396;2023-05-01T08:29:59;17.80;99.90
23160;DHT22;11748;50.844;4.396;2023-05-01T08:32:25;18.00;99.90
23160;DHT22;11748;50.844;4.396;2023-05-01T08:34:51;17.90;99.90
23160;DHT22;11748;50.844;4.396;2023-05-01T08:37:17;17.90;99.90
23160;DHT22;11748;50.844;4.396;2023-05-01T08:39:43;17.80;99.90
23160;DHT22;11748;50.844;4.396;2023-05-01T08:42:09;17.80;99.90
23160;DHT22;11748;50.844;4.396;2023-05-01T08:44:39;17.70;99.90
23160;DHT22;11748;50.844;4.396;2023-05-01T08:47:15;17.80;99.90
23160;DHT22;11748;50.844;4.396;2023-05-01T08:49:42;17.70;99.90
23160;DHT22;11748;50.844;4.396;2023-05-01T08:52:11;17.70;99.90
23160;DHT22;11748;50.844;4.396;2023-05-01T08:54:41;18.10;99.90
23160;DHT22;11748;50.844;4.396;2023-05-01T08:57:08;18.30;99.90
23160;DHT22;11748;50.844;4.396;2023-05-01T08:59:35;18.40;99.90
23160;DHT22;11748;50.844;4.396;2023-05-01T09:02:02;18.40;99.90
23160;DHT22;11748;50.844;4.396;2023-05-01T09:04:33;18.50;99.90
23160;DHT22;11748;50.844;4.396;2023-05-01T09:07:00;18.70;99.90
23160;DHT22;11748;50.844;4.396;2023-05-01T09:09:30;18.50;99.90
23160;DHT22;11748;50.844;4.396;2023-05-01T09:12:05;18.20;99.90
23160;DHT22;11748;50.844;4.396;2023-05-01T09:14:33;18.10;99.90
23160;DHT22;11748;50.844;4.396;2023-05-01T09:16:59;18.10;99.90
23160;DHT22;11748;50.844;4.396;2023-05-01T09:19:25;17.90;99.90
23160;DHT22;11748;50.844;4.396;2023-05-01T09:21:52;18.10;99.90
23160;DHT22;11748;50.844;4.396;2023-05-01T09:24:19;18.20;99.90
23160;DHT22;11748;50.844;4.396;2023-05-01T09:26:47;18.30;99.90
23160;DHT22;11748;50.844;4.396;2023-05-01T09:29:39;18.30;99.90
23160;DHT22;11748;50.844;4.396;2023-05-01T09:32:15;18.30;99.90
23160;DHT22;11748;50.844;4.396;2023-05-01T09:34:42;18.40;99.90
23160;DHT22;11748;50.844;4.396;2023-05-01T09:37:13;18.50;99.90
23160;DHT22;11748;50.844;4.396;2023-05-01T09:40:12;18.50;99.90
23160;DHT22;11748;50.844;4.396;2023-05-01T09:42:49;18.50;99.90
23160;DHT22;11748;50.844;4.396;2023-05-01T09:45:16;18.30;99.90
23160;DHT22;11748;50.844;4.396;2023-05-01T09:47:44;18.00;99.90
23160;DHT22;11748;50.844;4.396;2023-05-01T09:50:27;17.70;99.90
23160;DHT22;11748;50.844;4.396;2023-05-01T09:52:53;17.50;99.90
23160;DHT22;11748;50.844;4.396;2023-05-01T09:55:19;17.60;99.90
23160;DHT22;11748;50.844;4.396;2023-05-01T09:57:46;17.80;99.90
23160;DHT22;11748;50.844;4.396;2023-05-01T10:00:15;18.00;99.90
23160;DHT22;11748;50.844;4.396;2023-05-01T10:02:43;18.20;99.90
23160;DHT22;11748;50.844;4.396;2023-05-01T10:05:10;18.10;99.90
23160;DHT22;11748;50.844;4.396;2023-05-01T10:07:37;18.30;99.90
23160;DHT22;11748;50.844;4.396;2023-05-01T10:10:17;18.40;99.90
23160;DHT22;11748;50.844;4.396;2023-05-01T10:12:43;18.50;99.90
23160;DHT22;11748;50.844;4.396;2023-05-01T10:15:09;19.00;99.90
23160;DHT22;11748;50.844;4.396;2023-05-01T10:17:35;19.10;99.90
23160;DHT22;11748;50.844;4.396;2023-05-01T10:20:02;19.50;99.90
23160;DHT22;11748;50.844;4.396;2023-05-01T10:22:28;19.50;99.90
23160;DHT22;11748;50.844;4.396;2023-05-01T10:24:54;19.30;99.90
23160;DHT22;11748;50.844;4.396;2023-05-01T10:27:22;19.40;99.90
23160;DHT22;11748;50.844;4.396;2023-05-01T10:29:51;19.50;99.90
23160;DHT22;11748;50.844;4.396;2023-05-01T10:32:18;19.80;99.90
23160;DHT22;11748;50.844;4.396;2023-05-01T10:34:49;19.90;99.90
23160;DHT22;11748;50.844;4.396;2023-05-01T10:37:40;20.10;99.90
23160;DHT22;11748;50.844;4.396;2023-05-01T10:45:52;19.40;99.90
23160;DHT22;11748;50.844;4.396;2023-05-01T10:48:54;19.20;99.90
23160;DHT22;11748;50.844;4.396;2023-05-01T10:51:21;19.20;99.90
23160;DHT22;11748;50.844;4.396;2023-05-01T10:54:20;19.30;99.90
23160;DHT22;11748;50.844;4.396;2023-05-01T10:59:01;19.20;99.90
23160;DHT22;11748;50.844;4.396;2023-05-01T11:01:37;19.30;99.90
23160;DHT22;11748;50.844;4.396;2023-05-01T11:07:16;19.90;99.90
23160;DHT22;11748;50.844;4.396;2023-05-01T11:09:51;20.00;99.90
23160;DHT22;11748;50.844;4.396;2023-05-01T11:12:50;20.20;99.90
23160;DHT22;11748;50.844;4.396;2023-05-01T11:15:30;20.30;99.90
23160;DHT22;11748;50.844;4.396;2023-05-01T11:18:01;19.70;99.90
23160;DHT22;11748;50.844;4.396;2023-05-01T11:22:56;19.70;99.90
23160;DHT22;11748;50.844;4.396;2023-05-01T11:25:24;19.80;99.90
23160;DHT22;11748;50.844;4.396;2023-05-01T11:27:53;19.70;99.90
23160;DHT22;11748;50.844;4.396;2023-05-01T11:30:19;19.50;99.90
23160;DHT22;11748;50.844;4.396;2023-05-01T11:32:47;19.60;99.90
23160;DHT22;11748;50.844;4.396;2023-05-01T11:35:21;19.80;99.90
23160;DHT22;11748;50.844;4.396;2023-05-01T11:37:47;19.90;99.90
23160;DHT22;11748;50.844;4.396;2023-05-01T11:40:29;19.70;99.90
23160;DHT22;11748;50.844;4.396;2023-05-01T11:43:01;19.40;99.90
23160;DHT22;11748;50.844;4.396;2023-05-01T11:45:28;19.20;99.90
23160;DHT22;11748;50.844;4.396;2023-05-01T11:47:54;19.20;99.90
23160;DHT22;11748;50.844;4.396;2023-05-01T11:50:19;19.10;99.90
23160;DHT22;11748;50.844;4.396;2023-05-01T11:52:49;19.10;99.90
23160;DHT22;11748;50.844;4.396;2023-05-01T11:55:18;19.00;99.90
23160;DHT22;11748;50.844;4.396;2023-05-01T12:00:15;18.90;99.90
23160;DHT22;11748;50.844;4.396;2023-05-01T12:03:14;19.00;99.90
23160;DHT22;11748;50.844;4.396;2023-05-01T12:05:43;19.30;99.90
23160;DHT22;11748;50.844;4.396;2023-05-01T12:08:17;19.40;99.90
23160;DHT22;11748;50.844;4.396;2023-05-01T12:10:53;19.60;99.90
23160;DHT22;11748;50.844;4.396;2023-05-01T12:13:22;19.70;99.90
23160;DHT22;11748;50.844;4.396;2023-05-01T12:15:51;19.90;99.90
23160;DHT22;11748;50.844;4.396;2023-05-01T12:18:17;20.10;99.90
23160;DHT22;11748;50.844;4.396;2023-05-01T12:20:45;20.20;99.90
23160;DHT22;11748;50.844;4.396;2023-05-01T12:23:13;20.00;99.90
23160;DHT22;11748;50.844;4.396;2023-05-01T12:25:41;20.00;99.90
23160;DHT22;11748;50.844;4.396;2023-05-01T12:30:39;20.10;99.90
23160;DHT22;11748;50.844;4.396;2023-05-01T12:33:12;20.20;99.90
23160;DHT22;11748;50.844;4.396;2023-05-01T12:35:39;20.10;99.90
23160;DHT22;11748;50.844;4.396;2023-05-01T12:38:20;20.10;99.90
23160;DHT22;11748;50.844;4.396;2023-05-01T12:43:20;20.40;99.90
23160;DHT22;11748;50.844;4.396;2023-05-01T12:45:50;20.10;99.90
23160;DHT22;11748;50.844;4.396;2023-05-01T12:48:17;20.20;99.90
23160;DHT22;11748;50.844;4.396;2023-05-01T12:50:43;20.60;99.90
23160;DHT22;11748;50.844;4.396;2023-05-01T12:53:11;20.60;99.90
23160;DHT22;11748;50.844;4.396;2023-05-01T12:55:48;20.70;99.90
23160;DHT22;11748;50.844;4.396;2023-05-01T12:58:14;20.40;99.30
23160;DHT22;11748;50.844;4.396;2023-05-01T13:00:49;20.10;99.30
23160;DHT22;11748;50.844;4.396;2023-05-01T13:03:21;19.90;99.90
23160;DHT22;11748;50.844;4.396;2023-05-01T13:05:58;19.90;99.90
23160;DHT22;11748;50.844;4.396;2023-05-01T13:08:32;19.90;99.90
23160;DHT22;11748;50.844;4.396;2023-05-01T13:11:08;19.70;99.90
23160;DHT22;11748;50.844;4.396;2023-05-01T13:13:35;19.60;99.90
23160;DHT22;11748;50.844;4.396;2023-05-01T13:16:15;19.80;99.90
23160;DHT22;11748;50.844;4.396;2023-05-01T13:18:50;19.70;99.90
23160;DHT22;11748;50.844;4.396;2023-05-01T13:21:20;19.60;99.90
23160;DHT22;11748;50.844;4.396;2023-05-01T13:23:55;19.50;99.90
23160;DHT22;11748;50.844;4.396;2023-05-01T13:26:25;19.50;99.90
23160;DHT22;11748;50.844;4.396;2023-05-01T13:28:52;19.40;99.90
23160;DHT22;11748;50.844;4.396;2023-05-01T13:31:18;19.20;99.90
23160;DHT22;11748;50.844;4.396;2023-05-01T13:33:43;19.00;99.90
23160;DHT22;11748;50.844;4.396;2023-05-01T13:36:12;19.10;99.90
23160;DHT22;11748;50.844;4.396;2023-05-01T13:38:56;19.40;99.90
23160;DHT22;11748;50.844;4.396;2023-05-01T13:41:24;19.70;99.90
23160;DHT22;11748;50.844;4.396;2023-05-01T13:43:51;19.80;99.90
23160;DHT22;11748;50.844;4.396;2023-05-01T13:46:19;19.80;99.90
23160;DHT22;11748;50.844;4.396;2023-05-01T13:48:46;19.70;99.90
23160;DHT22;11748;50.844;4.396;2023-05-01T13:51:13;19.80;99.90
23160;DHT22;11748;50.844;4.396;2023-05-01T13:53:40;19.80;99.90
23160;DHT22;11748;50.844;4.396;2023-05-01T13:56:09;19.70;99.90
23160;DHT22;11748;50.844;4.396;2023-05-01T13:58:36;19.60;99.90
23160;DHT22;11748;50.844;4.396;2023-05-01T14:01:02;19.70;99.90
23160;DHT22;11748;50.844;4.396;2023-05-01T14:03:39;19.80;99.90
23160;DHT22;11748;50.844;4.396;2023-05-01T14:06:08;19.60;99.90
23160;DHT22;11748;50.844;4.396;2023-05-01T14:08:34;19.60;99.90
23160;DHT22;11748;50.844;4.396;2023-05-01T14:11:04;19.70;99.90
23160;DHT22;11748;50.844;4.396;2023-05-01T14:13:30;19.90;99.90
23160;DHT22;11748;50.844;4.396;2023-05-01T14:15:56;20.00;99.90
23160;DHT22;11748;50.844;4.396;2023-05-01T14:18:21;20.40;99.90
23160;DHT22;11748;50.844;4.396;2023-05-01T14:20:47;20.50;99.60
23160;DHT22;11748;50.844;4.396;2023-05-01T14:23:15;20.30;99.60
23160;DHT22;11748;50.844;4.396;2023-05-01T14:25:44;20.10;99.90
23160;DHT22;11748;50.844;4.396;2023-05-01T14:28:10;20.00;99.90
23160;DHT22;11748;50.844;4.396;2023-05-01T14:30:39;20.10;99.90
23160;DHT22;11748;50.844;4.396;2023-05-01T14:33:07;20.20;99.80
23160;DHT22;11748;50.844;4.396;2023-05-01T14:35:33;20.20;99.90
23160;DHT22;11748;50.844;4.396;2023-05-01T14:38:08;20.40;99.10
23160;DHT22;11748;50.844;4.396;2023-05-01T14:40:34;20.20;99.10
23160;DHT22;11748;50.844;4.396;2023-05-01T14:43:00;20.20;99.40
23160;DHT22;11748;50.844;4.396;2023-05-01T14:45:27;20.20;99.40
23160;DHT22;11748;50.844;4.396;2023-05-01T14:47:52;20.20;99.20
23160;DHT22;11748;50.844;4.396;2023-05-01T14:50:22;20.20;98.70
23160;DHT22;11748;50.844;4.396;2023-05-01T14:52:56;20.00;98.90
23160;DHT22;11748;50.844;4.396;2023-05-01T14:55:27;20.20;99.00
23160;DHT22;11748;50.844;4.396;2023-05-01T14:57:54;20.40;99.00
23160;DHT22;11748;50.844;4.396;2023-05-01T15:00:21;21.00;98.00
23160;DHT22;11748;50.844;4.396;2023-05-01T15:02:47;21.20;97.70
23160;DHT22;11748;50.844;4.396;2023-05-01T15:05:14;21.10;97.90
23160;DHT22;11748;50.844;4.396;2023-05-01T15:07:40;21.10;97.70
23160;DHT22;11748;50.844;4.396;2023-05-01T15:10:07;21.00;97.80
23160;DHT22;11748;50.844;4.396;2023-05-01T15:12:33;20.90;97.60
23160;DHT22;11748;50.844;4.396;2023-05-01T15:14:58;20.90;97.70
23160;DHT22;11748;50.844;4.396;2023-05-01T15:17:24;20.50;98.10
23160;DHT22;11748;50.844;4.396;2023-05-01T15:19:50;20.50;98.20
23160;DHT22;11748;50.844;4.396;2023-05-01T15:22:16;20.40;98.40
23160;DHT22;11748;50.844;4.396;2023-05-01T15:24:42;20.20;98.70
23160;DHT22;11748;50.844;4.396;2023-05-01T15:27:07;20.30;98.70
23160;DHT22;11748;50.844;4.396;2023-05-01T15:29:34;20.10;99.00
23160;DHT22;11748;50.844;4.396;2023-05-01T15:32:00;19.90;99.30
23160;DHT22;11748;50.844;4.396;2023-05-01T15:34:28;20.00;99.10
23160;DHT22;11748;50.844;4.396;2023-05-01T15:36:54;20.00;99.20
23160;DHT22;11748;50.844;4.396;2023-05-01T15:39:20;19.90;99.60
23160;DHT22;11748;50.844;4.396;2023-05-01T15:41:46;19.80;99.80
23160;DHT22;11748;50.844;4.396;2023-05-01T15:44:12;19.80;99.90
23160;DHT22;11748;50.844;4.396;2023-05-01T15:46:38;19.60;99.90
23160;DHT22;11748;50.844;4.396;2023-05-01T15:49:08;19.50;99.90
23160;DHT22;11748;50.844;4.396;2023-05-01T15:51:34;19.60;99.90
23160;DHT22;11748;50.844;4.396;2023-05-01T15:54:00;19.40;99.90
23160;DHT22;11748;50.844;4.396;2023-05-01T15:56:27;19.30;99.90
23160;DHT22;11748;50.844;4.396;2023-05-01T15:58:54;19.20;99.90
23160;DHT22;11748;50.844;4.396;2023-05-01T16:01:20;19.40;99.90
23160;DHT22;11748;50.844;4.396;2023-05-01T16:03:47;19.60;99.70
23160;DHT22;11748;50.844;4.396;2023-05-01T16:06:13;19.60;99.90
23160;DHT22;11748;50.844;4.396;2023-05-01T16:08:42;19.60;99.90
23160;DHT22;11748;50.844;4.396;2023-05-01T16:11:09;19.40;99.90
23160;DHT22;11748;50.844;4.396;2023-05-01T16:13:40;19.10;99.90
23160;DHT22;11748;50.844;4.396;2023-05-01T16:16:10;18.90;99.90